<?xml version="1.0" encoding="UTF-8" standalone="no" ?>
<gpx xmlns="http://www.topografix.com/GPX/1/1" xmlns:xsi="http://www.w3.org/2001/XMLSchema-instance" xsi:schemaLocation="http://www.topografix.com/GPX/1/1 http://www.topografix.com/GPX/1/1/gpx.xsd" version="1.1" creator="VisuGPX - https://www.visugpx.com">
  <metadata>
    <name>Le 8 Manosquain</name>
  </metadata>
  <trk>
    <name><![CDATA[Le 8 Manosquain]]></name>
    <trkseg>
      <trkpt lat="43.8544" lon="5.8164">
        <ele>371.641</ele>
        <time>2020-09-27T14:58:49Z</time>
      </trkpt>
      <trkpt lat="43.85448" lon="5.81618">
        <ele>372.281</ele>
        <time>2020-09-27T14:59:32Z</time>
      </trkpt>
      <trkpt lat="43.85573" lon="5.81521">
        <ele>370.809</ele>
        <time>2020-09-27T15:00:18Z</time>
      </trkpt>
      <trkpt lat="43.85656" lon="5.81484">
        <ele>368.608</ele>
        <time>2020-09-27T15:00:46Z</time>
      </trkpt>
      <trkpt lat="43.85731" lon="5.81498">
        <ele>373.219</ele>
        <time>2020-09-27T15:01:16Z</time>
      </trkpt>
      <trkpt lat="43.85731" lon="5.81523">
        <ele>373.431</ele>
        <time>2020-09-27T15:01:17Z</time>
      </trkpt>
      <trkpt lat="43.85655" lon="5.8153">
        <ele>379.459</ele>
        <time>2020-09-27T15:01:49Z</time>
      </trkpt>
      <trkpt lat="43.85614" lon="5.81553">
        <ele>380.483</ele>
        <time>2020-09-27T15:02:02Z</time>
      </trkpt>
      <trkpt lat="43.85517" lon="5.81699">
        <ele>382.865</ele>
        <time>2020-09-27T15:02:39Z</time>
      </trkpt>
      <trkpt lat="43.85464" lon="5.8187">
        <ele>383.053</ele>
        <time>2020-09-27T15:03:13Z</time>
      </trkpt>
      <trkpt lat="43.8551" lon="5.81978">
        <ele>383.469</ele>
        <time>2020-09-27T15:03:37Z</time>
      </trkpt>
      <trkpt lat="43.8563" lon="5.821">
        <ele>385.038</ele>
        <time>2020-09-27T15:04:14Z</time>
      </trkpt>
      <trkpt lat="43.8572" lon="5.8216">
        <ele>387.067</ele>
        <time>2020-09-27T15:04:38Z</time>
      </trkpt>
      <trkpt lat="43.85772" lon="5.82157">
        <ele>386.881</ele>
        <time>2020-09-27T15:04:50Z</time>
      </trkpt>
      <trkpt lat="43.85888" lon="5.82111">
        <ele>384.019</ele>
        <time>2020-09-27T15:05:16Z</time>
      </trkpt>
      <trkpt lat="43.85934" lon="5.82074">
        <ele>381.208</ele>
        <time>2020-09-27T15:05:27Z</time>
      </trkpt>
      <trkpt lat="43.86002" lon="5.82064">
        <ele>380.651</ele>
        <time>2020-09-27T15:05:42Z</time>
      </trkpt>
      <trkpt lat="43.86056" lon="5.82162">
        <ele>385.033</ele>
        <time>2020-09-27T15:06:56Z</time>
      </trkpt>
      <trkpt lat="43.85932" lon="5.82249">
        <ele>385.441</ele>
        <time>2020-09-27T15:07:42Z</time>
      </trkpt>
      <trkpt lat="43.8592" lon="5.82286">
        <ele>384.895</ele>
        <time>2020-09-27T15:07:48Z</time>
      </trkpt>
      <trkpt lat="43.85939" lon="5.82323">
        <ele>385.047</ele>
        <time>2020-09-27T15:07:54Z</time>
      </trkpt>
      <trkpt lat="43.86302" lon="5.8271">
        <ele>387.675</ele>
        <time>2020-09-27T15:12:29Z</time>
      </trkpt>
      <trkpt lat="43.86355" lon="5.82714">
        <ele>387.851</ele>
        <time>2020-09-27T15:12:40Z</time>
      </trkpt>
      <trkpt lat="43.8642" lon="5.82652">
        <ele>386.61</ele>
        <time>2020-09-27T15:12:56Z</time>
      </trkpt>
      <trkpt lat="43.86444" lon="5.82648">
        <ele>386.026</ele>
        <time>2020-09-27T15:13:03Z</time>
      </trkpt>
      <trkpt lat="43.86443" lon="5.82626">
        <ele>385.447</ele>
        <time>2020-09-27T15:13:21Z</time>
      </trkpt>
      <trkpt lat="43.86494" lon="5.82588">
        <ele>382.011</ele>
        <time>2020-09-27T15:13:48Z</time>
      </trkpt>
      <trkpt lat="43.86563" lon="5.82485">
        <ele>378.008</ele>
        <time>2020-09-27T15:14:27Z</time>
      </trkpt>
      <trkpt lat="43.86575" lon="5.82441">
        <ele>380.667</ele>
        <time>2020-09-27T15:14:45Z</time>
      </trkpt>
      <trkpt lat="43.86549" lon="5.824">
        <ele>384.229</ele>
        <time>2020-09-27T15:15:01Z</time>
      </trkpt>
      <trkpt lat="43.86557" lon="5.82293">
        <ele>394.847</ele>
        <time>2020-09-27T15:15:36Z</time>
      </trkpt>
      <trkpt lat="43.86539" lon="5.82235">
        <ele>398.291</ele>
        <time>2020-09-27T15:15:55Z</time>
      </trkpt>
      <trkpt lat="43.86558" lon="5.8217">
        <ele>408.443</ele>
        <time>2020-09-27T15:16:44Z</time>
      </trkpt>
      <trkpt lat="43.86567" lon="5.82167">
        <ele>418.005</ele>
        <time>2020-09-27T15:17:45Z</time>
      </trkpt>
      <trkpt lat="43.86598" lon="5.82151">
        <ele>420.008</ele>
        <time>2020-09-27T15:17:53Z</time>
      </trkpt>
      <trkpt lat="43.86622" lon="5.82109">
        <ele>421.857</ele>
        <time>2020-09-27T15:18:02Z</time>
      </trkpt>
      <trkpt lat="43.86646" lon="5.82108">
        <ele>423.099</ele>
        <time>2020-09-27T15:18:09Z</time>
      </trkpt>
      <trkpt lat="43.86687" lon="5.81991">
        <ele>426.437</ele>
        <time>2020-09-27T15:18:29Z</time>
      </trkpt>
      <trkpt lat="43.86719" lon="5.81951">
        <ele>430.851</ele>
        <time>2020-09-27T15:18:45Z</time>
      </trkpt>
      <trkpt lat="43.86803" lon="5.81968">
        <ele>437.423</ele>
        <time>2020-09-27T15:19:09Z</time>
      </trkpt>
      <trkpt lat="43.86819" lon="5.81951">
        <ele>439.881</ele>
        <time>2020-09-27T15:19:16Z</time>
      </trkpt>
      <trkpt lat="43.86809" lon="5.81833">
        <ele>449.617</ele>
        <time>2020-09-27T15:19:43Z</time>
      </trkpt>
      <trkpt lat="43.8677" lon="5.81773">
        <ele>460.496</ele>
        <time>2020-09-27T15:20:13Z</time>
      </trkpt>
      <trkpt lat="43.86747" lon="5.81612">
        <ele>476.468</ele>
        <time>2020-09-27T15:21:03Z</time>
      </trkpt>
      <trkpt lat="43.86787" lon="5.81439">
        <ele>493.442</ele>
        <time>2020-09-27T15:22:02Z</time>
      </trkpt>
      <trkpt lat="43.86867" lon="5.81383">
        <ele>502.626</ele>
        <time>2020-09-27T15:22:41Z</time>
      </trkpt>
      <trkpt lat="43.86904" lon="5.81376">
        <ele>505.408</ele>
        <time>2020-09-27T15:22:56Z</time>
      </trkpt>
      <trkpt lat="43.86966" lon="5.8139">
        <ele>508.841</ele>
        <time>2020-09-27T15:23:18Z</time>
      </trkpt>
      <trkpt lat="43.86995" lon="5.81329">
        <ele>513.833</ele>
        <time>2020-09-27T15:23:41Z</time>
      </trkpt>
      <trkpt lat="43.86981" lon="5.81416">
        <ele>520.081</ele>
        <time>2020-09-27T15:24:08Z</time>
      </trkpt>
      <trkpt lat="43.86892" lon="5.81476">
        <ele>531.615</ele>
        <time>2020-09-27T15:24:54Z</time>
      </trkpt>
      <trkpt lat="43.86928" lon="5.81479">
        <ele>534.887</ele>
        <time>2020-09-27T15:25:07Z</time>
      </trkpt>
      <trkpt lat="43.8698" lon="5.81462">
        <ele>538.625</ele>
        <time>2020-09-27T15:25:24Z</time>
      </trkpt>
      <trkpt lat="43.87024" lon="5.81428">
        <ele>542.291</ele>
        <time>2020-09-27T15:25:40Z</time>
      </trkpt>
      <trkpt lat="43.87042" lon="5.81391">
        <ele>544.06</ele>
        <time>2020-09-27T15:25:50Z</time>
      </trkpt>
      <trkpt lat="43.8709" lon="5.81368">
        <ele>546.646</ele>
        <time>2020-09-27T15:26:04Z</time>
      </trkpt>
      <trkpt lat="43.87103" lon="5.81238">
        <ele>554.288</ele>
        <time>2020-09-27T15:26:34Z</time>
      </trkpt>
      <trkpt lat="43.87131" lon="5.81177">
        <ele>559.416</ele>
        <time>2020-09-27T15:26:50Z</time>
      </trkpt>
      <trkpt lat="43.87152" lon="5.81162">
        <ele>562.208</ele>
        <time>2020-09-27T15:26:59Z</time>
      </trkpt>
      <trkpt lat="43.87176" lon="5.81181">
        <ele>565.679</ele>
        <time>2020-09-27T15:27:09Z</time>
      </trkpt>
      <trkpt lat="43.87188" lon="5.81175">
        <ele>568.261</ele>
        <time>2020-09-27T15:27:18Z</time>
      </trkpt>
      <trkpt lat="43.87232" lon="5.81073">
        <ele>577.869</ele>
        <time>2020-09-27T15:27:59Z</time>
      </trkpt>
      <trkpt lat="43.87272" lon="5.81066">
        <ele>582.843</ele>
        <time>2020-09-27T15:28:23Z</time>
      </trkpt>
      <trkpt lat="43.8728" lon="5.81006">
        <ele>586.685</ele>
        <time>2020-09-27T15:28:45Z</time>
      </trkpt>
      <trkpt lat="43.8734" lon="5.80967">
        <ele>589.013</ele>
        <time>2020-09-27T15:29:06Z</time>
      </trkpt>
      <trkpt lat="43.87332" lon="5.8074">
        <ele>598.699</ele>
        <time>2020-09-27T15:30:05Z</time>
      </trkpt>
      <trkpt lat="43.8723" lon="5.80568">
        <ele>609.088</ele>
        <time>2020-09-27T15:31:10Z</time>
      </trkpt>
      <trkpt lat="43.87205" lon="5.80464">
        <ele>615.448</ele>
        <time>2020-09-27T15:31:40Z</time>
      </trkpt>
      <trkpt lat="43.87133" lon="5.80477">
        <ele>621.261</ele>
        <time>2020-09-27T15:32:07Z</time>
      </trkpt>
      <trkpt lat="43.87134" lon="5.80465">
        <ele>621.817</ele>
        <time>2020-09-27T15:32:09Z</time>
      </trkpt>
      <trkpt lat="43.87169" lon="5.80407">
        <ele>627.008</ele>
        <time>2020-09-27T15:32:34Z</time>
      </trkpt>
      <trkpt lat="43.87181" lon="5.80294">
        <ele>633.699</ele>
        <time>2020-09-27T15:33:12Z</time>
      </trkpt>
      <trkpt lat="43.87253" lon="5.80215">
        <ele>643.071</ele>
        <time>2020-09-27T15:33:58Z</time>
      </trkpt>
      <trkpt lat="43.87308" lon="5.80177">
        <ele>647.879</ele>
        <time>2020-09-27T15:34:22Z</time>
      </trkpt>
      <trkpt lat="43.87318" lon="5.80058">
        <ele>652.033</ele>
        <time>2020-09-27T15:34:50Z</time>
      </trkpt>
      <trkpt lat="43.87299" lon="5.79853">
        <ele>656.235</ele>
        <time>2020-09-27T15:35:32Z</time>
      </trkpt>
      <trkpt lat="43.87341" lon="5.79799">
        <ele>655.073</ele>
        <time>2020-09-27T15:35:48Z</time>
      </trkpt>
      <trkpt lat="43.87402" lon="5.79763">
        <ele>654.099</ele>
        <time>2020-09-27T15:36:04Z</time>
      </trkpt>
      <trkpt lat="43.8741" lon="5.79721">
        <ele>653.428</ele>
        <time>2020-09-27T15:36:10Z</time>
      </trkpt>
      <trkpt lat="43.87473" lon="5.79628">
        <ele>651.292</ele>
        <time>2020-09-27T15:36:23Z</time>
      </trkpt>
      <trkpt lat="43.87534" lon="5.79267">
        <ele>641.473</ele>
        <time>2020-09-27T15:36:53Z</time>
      </trkpt>
      <trkpt lat="43.8753" lon="5.79224">
        <ele>615.62</ele>
        <time>2020-09-27T15:38:55Z</time>
      </trkpt>
      <trkpt lat="43.87415" lon="5.79194">
        <ele>609.008</ele>
        <time>2020-09-27T15:39:41Z</time>
      </trkpt>
      <trkpt lat="43.87331" lon="5.79048">
        <ele>597.894</ele>
        <time>2020-09-27T15:40:20Z</time>
      </trkpt>
      <trkpt lat="43.87187" lon="5.78956">
        <ele>595.026</ele>
        <time>2020-09-27T15:41:10Z</time>
      </trkpt>
      <trkpt lat="43.86988" lon="5.7899">
        <ele>601.434</ele>
        <time>2020-09-27T15:43:27Z</time>
      </trkpt>
      <trkpt lat="43.86931" lon="5.78947">
        <ele>603.828</ele>
        <time>2020-09-27T15:43:44Z</time>
      </trkpt>
      <trkpt lat="43.86898" lon="5.7896">
        <ele>605.21</ele>
        <time>2020-09-27T15:43:54Z</time>
      </trkpt>
      <trkpt lat="43.86848" lon="5.78939">
        <ele>607.678</ele>
        <time>2020-09-27T15:44:09Z</time>
      </trkpt>
      <trkpt lat="43.86817" lon="5.78861">
        <ele>609.014</ele>
        <time>2020-09-27T15:44:20Z</time>
      </trkpt>
      <trkpt lat="43.86797" lon="5.78715">
        <ele>611.253</ele>
        <time>2020-09-27T15:44:54Z</time>
      </trkpt>
      <trkpt lat="43.8672" lon="5.78657">
        <ele>611.423</ele>
        <time>2020-09-27T15:45:14Z</time>
      </trkpt>
      <trkpt lat="43.86674" lon="5.78559">
        <ele>616.283</ele>
        <time>2020-09-27T15:45:55Z</time>
      </trkpt>
      <trkpt lat="43.86683" lon="5.7858">
        <ele>616.211</ele>
        <time>2020-09-27T15:45:56Z</time>
      </trkpt>
      <trkpt lat="43.86622" lon="5.78495">
        <ele>619.608</ele>
        <time>2020-09-27T15:46:25Z</time>
      </trkpt>
      <trkpt lat="43.86586" lon="5.78382">
        <ele>627.847</ele>
        <time>2020-09-27T15:47:36Z</time>
      </trkpt>
      <trkpt lat="43.865" lon="5.78364">
        <ele>626.859</ele>
        <time>2020-09-27T15:47:48Z</time>
      </trkpt>
      <trkpt lat="43.86441" lon="5.78333">
        <ele>626.017</ele>
        <time>2020-09-27T15:47:50Z</time>
      </trkpt>
      <trkpt lat="43.86427" lon="5.78289">
        <ele>624.221</ele>
        <time>2020-09-27T15:47:55Z</time>
      </trkpt>
      <trkpt lat="43.86428" lon="5.7812">
        <ele>620.083</ele>
        <time>2020-09-27T15:48:11Z</time>
      </trkpt>
      <trkpt lat="43.86388" lon="5.78003">
        <ele>616.231</ele>
        <time>2020-09-27T15:48:20Z</time>
      </trkpt>
      <trkpt lat="43.86336" lon="5.77909">
        <ele>593.867</ele>
        <time>2020-09-27T15:49:49Z</time>
      </trkpt>
      <trkpt lat="43.86354" lon="5.77827">
        <ele>595.056</ele>
        <time>2020-09-27T15:52:21Z</time>
      </trkpt>
      <trkpt lat="43.86296" lon="5.77647">
        <ele>598.674</ele>
        <time>2020-09-27T15:53:12Z</time>
      </trkpt>
      <trkpt lat="43.86237" lon="5.77589">
        <ele>599.256</ele>
        <time>2020-09-27T15:53:26Z</time>
      </trkpt>
      <trkpt lat="43.86224" lon="5.77558">
        <ele>599.221</ele>
        <time>2020-09-27T15:53:29Z</time>
      </trkpt>
      <trkpt lat="43.86194" lon="5.77334">
        <ele>598.208</ele>
        <time>2020-09-27T15:54:00Z</time>
      </trkpt>
      <trkpt lat="43.86151" lon="5.77238">
        <ele>598.872</ele>
        <time>2020-09-27T15:54:18Z</time>
      </trkpt>
      <trkpt lat="43.86158" lon="5.77157">
        <ele>599.624</ele>
        <time>2020-09-27T15:54:31Z</time>
      </trkpt>
      <trkpt lat="43.86086" lon="5.77029">
        <ele>600.652</ele>
        <time>2020-09-27T15:54:51Z</time>
      </trkpt>
      <trkpt lat="43.86092" lon="5.76981">
        <ele>600.686</ele>
        <time>2020-09-27T15:54:58Z</time>
      </trkpt>
      <trkpt lat="43.86058" lon="5.76881">
        <ele>601.068</ele>
        <time>2020-09-27T15:55:15Z</time>
      </trkpt>
      <trkpt lat="43.86065" lon="5.76818">
        <ele>601.216</ele>
        <time>2020-09-27T15:55:30Z</time>
      </trkpt>
      <trkpt lat="43.86024" lon="5.76784">
        <ele>601.652</ele>
        <time>2020-09-27T15:55:43Z</time>
      </trkpt>
      <trkpt lat="43.85986" lon="5.76709">
        <ele>601.091</ele>
        <time>2020-09-27T15:55:49Z</time>
      </trkpt>
      <trkpt lat="43.85992" lon="5.76559">
        <ele>599.842</ele>
        <time>2020-09-27T15:56:42Z</time>
      </trkpt>
      <trkpt lat="43.85935" lon="5.76396">
        <ele>596.622</ele>
        <time>2020-09-27T15:57:01Z</time>
      </trkpt>
      <trkpt lat="43.8591" lon="5.76267">
        <ele>594.614</ele>
        <time>2020-09-27T15:57:19Z</time>
      </trkpt>
      <trkpt lat="43.85873" lon="5.76227">
        <ele>594.008</ele>
        <time>2020-09-27T15:57:29Z</time>
      </trkpt>
      <trkpt lat="43.85811" lon="5.76198">
        <ele>594.679</ele>
        <time>2020-09-27T15:57:46Z</time>
      </trkpt>
      <trkpt lat="43.85691" lon="5.76197">
        <ele>599.861</ele>
        <time>2020-09-27T15:58:20Z</time>
      </trkpt>
      <trkpt lat="43.85651" lon="5.7631">
        <ele>605.279</ele>
        <time>2020-09-27T15:58:47Z</time>
      </trkpt>
      <trkpt lat="43.85627" lon="5.76347">
        <ele>607.213</ele>
        <time>2020-09-27T15:58:56Z</time>
      </trkpt>
      <trkpt lat="43.85607" lon="5.76351">
        <ele>608.265</ele>
        <time>2020-09-27T15:59:01Z</time>
      </trkpt>
      <trkpt lat="43.85475" lon="5.76201">
        <ele>624.623</ele>
        <time>2020-09-27T16:00:13Z</time>
      </trkpt>
      <trkpt lat="43.85415" lon="5.75924">
        <ele>637.429</ele>
        <time>2020-09-27T16:01:19Z</time>
      </trkpt>
      <trkpt lat="43.85556" lon="5.75669">
        <ele>637.898</ele>
        <time>2020-09-27T16:01:52Z</time>
      </trkpt>
      <trkpt lat="43.8553" lon="5.75444">
        <ele>636.245</ele>
        <time>2020-09-27T16:02:23Z</time>
      </trkpt>
      <trkpt lat="43.85528" lon="5.75279">
        <ele>634.447</ele>
        <time>2020-09-27T16:02:59Z</time>
      </trkpt>
      <trkpt lat="43.85503" lon="5.75178">
        <ele>631.811</ele>
        <time>2020-09-27T16:03:09Z</time>
      </trkpt>
      <trkpt lat="43.8562" lon="5.74984">
        <ele>621.608</ele>
        <time>2020-09-27T16:04:16Z</time>
      </trkpt>
      <trkpt lat="43.85643" lon="5.74885">
        <ele>621.879</ele>
        <time>2020-09-27T16:04:34Z</time>
      </trkpt>
      <trkpt lat="43.85703" lon="5.7482">
        <ele>623.481</ele>
        <time>2020-09-27T16:04:55Z</time>
      </trkpt>
      <trkpt lat="43.85768" lon="5.74642">
        <ele>625.069</ele>
        <time>2020-09-27T16:06:10Z</time>
      </trkpt>
      <trkpt lat="43.86013" lon="5.74453">
        <ele>619.013</ele>
        <time>2020-09-27T16:07:57Z</time>
      </trkpt>
      <trkpt lat="43.86034" lon="5.74304">
        <ele>616.455</ele>
        <time>2020-09-27T16:08:11Z</time>
      </trkpt>
      <trkpt lat="43.86066" lon="5.74275">
        <ele>615.053</ele>
        <time>2020-09-27T16:08:17Z</time>
      </trkpt>
      <trkpt lat="43.86191" lon="5.74203">
        <ele>607.289</ele>
        <time>2020-09-27T16:08:39Z</time>
      </trkpt>
      <trkpt lat="43.86252" lon="5.74211">
        <ele>603.658</ele>
        <time>2020-09-27T16:08:50Z</time>
      </trkpt>
      <trkpt lat="43.86297" lon="5.74192">
        <ele>601.612</ele>
        <time>2020-09-27T16:08:58Z</time>
      </trkpt>
      <trkpt lat="43.86374" lon="5.74103">
        <ele>597.832</ele>
        <time>2020-09-27T16:09:17Z</time>
      </trkpt>
      <trkpt lat="43.86438" lon="5.74055">
        <ele>595.805</ele>
        <time>2020-09-27T16:09:26Z</time>
      </trkpt>
      <trkpt lat="43.86481" lon="5.74066">
        <ele>595.608</ele>
        <time>2020-09-27T16:09:35Z</time>
      </trkpt>
      <trkpt lat="43.86544" lon="5.74053">
        <ele>595.846</ele>
        <time>2020-09-27T16:10:01Z</time>
      </trkpt>
      <trkpt lat="43.86565" lon="5.73991">
        <ele>596.248</ele>
        <time>2020-09-27T16:10:21Z</time>
      </trkpt>
      <trkpt lat="43.86621" lon="5.73906">
        <ele>599.216</ele>
        <time>2020-09-27T16:10:55Z</time>
      </trkpt>
      <trkpt lat="43.86685" lon="5.73853">
        <ele>602.24</ele>
        <time>2020-09-27T16:11:24Z</time>
      </trkpt>
      <trkpt lat="43.86746" lon="5.73825">
        <ele>603.412</ele>
        <time>2020-09-27T16:11:44Z</time>
      </trkpt>
      <trkpt lat="43.8687" lon="5.73848">
        <ele>604.63</ele>
        <time>2020-09-27T16:12:14Z</time>
      </trkpt>
      <trkpt lat="43.86924" lon="5.73925">
        <ele>605.846</ele>
        <time>2020-09-27T16:12:36Z</time>
      </trkpt>
      <trkpt lat="43.86939" lon="5.73933">
        <ele>606.045</ele>
        <time>2020-09-27T16:12:41Z</time>
      </trkpt>
      <trkpt lat="43.86985" lon="5.73918">
        <ele>607.649</ele>
        <time>2020-09-27T16:12:56Z</time>
      </trkpt>
      <trkpt lat="43.87065" lon="5.73997">
        <ele>607.602</ele>
        <time>2020-09-27T16:13:15Z</time>
      </trkpt>
      <trkpt lat="43.8721" lon="5.73996">
        <ele>611.222</ele>
        <time>2020-09-27T16:13:55Z</time>
      </trkpt>
      <trkpt lat="43.87249" lon="5.73982">
        <ele>612.608</ele>
        <time>2020-09-27T16:14:12Z</time>
      </trkpt>
      <trkpt lat="43.87286" lon="5.73862">
        <ele>610.869</ele>
        <time>2020-09-27T16:14:43Z</time>
      </trkpt>
      <trkpt lat="43.87279" lon="5.7354">
        <ele>586.821</ele>
        <time>2020-09-27T16:15:48Z</time>
      </trkpt>
      <trkpt lat="43.87305" lon="5.73583">
        <ele>573.059</ele>
        <time>2020-09-27T16:17:06Z</time>
      </trkpt>
      <trkpt lat="43.87365" lon="5.73574">
        <ele>571.443</ele>
        <time>2020-09-27T16:17:16Z</time>
      </trkpt>
      <trkpt lat="43.87348" lon="5.73538">
        <ele>570.275</ele>
        <time>2020-09-27T16:17:21Z</time>
      </trkpt>
      <trkpt lat="43.87353" lon="5.7347">
        <ele>566.623</ele>
        <time>2020-09-27T16:17:39Z</time>
      </trkpt>
      <trkpt lat="43.87426" lon="5.73276">
        <ele>558.479</ele>
        <time>2020-09-27T16:18:20Z</time>
      </trkpt>
      <trkpt lat="43.87541" lon="5.73223">
        <ele>553.478</ele>
        <time>2020-09-27T16:18:39Z</time>
      </trkpt>
      <trkpt lat="43.87663" lon="5.73016">
        <ele>545.477</ele>
        <time>2020-09-27T16:19:04Z</time>
      </trkpt>
      <trkpt lat="43.87675" lon="5.72902">
        <ele>539.661</ele>
        <time>2020-09-27T16:19:17Z</time>
      </trkpt>
      <trkpt lat="43.87657" lon="5.72816">
        <ele>533.027</ele>
        <time>2020-09-27T16:19:32Z</time>
      </trkpt>
      <trkpt lat="43.87677" lon="5.72752">
        <ele>524.008</ele>
        <time>2020-09-27T16:19:50Z</time>
      </trkpt>
      <trkpt lat="43.87716" lon="5.72694">
        <ele>514.292</ele>
        <time>2020-09-27T16:20:09Z</time>
      </trkpt>
      <trkpt lat="43.87766" lon="5.72658">
        <ele>506.694</ele>
        <time>2020-09-27T16:20:23Z</time>
      </trkpt>
      <trkpt lat="43.87885" lon="5.72668">
        <ele>490.012</ele>
        <time>2020-09-27T16:20:56Z</time>
      </trkpt>
      <trkpt lat="43.88" lon="5.72561">
        <ele>473.826</ele>
        <time>2020-09-27T16:21:29Z</time>
      </trkpt>
      <trkpt lat="43.88035" lon="5.72483">
        <ele>463.278</ele>
        <time>2020-09-27T16:21:48Z</time>
      </trkpt>
      <trkpt lat="43.88057" lon="5.72246">
        <ele>436.496</ele>
        <time>2020-09-27T16:23:36Z</time>
      </trkpt>
      <trkpt lat="43.88125" lon="5.72197">
        <ele>434.242</ele>
        <time>2020-09-27T16:23:53Z</time>
      </trkpt>
      <trkpt lat="43.88142" lon="5.72167">
        <ele>432.871</ele>
        <time>2020-09-27T16:24:04Z</time>
      </trkpt>
      <trkpt lat="43.88208" lon="5.72268">
        <ele>430.247</ele>
        <time>2020-09-27T16:24:38Z</time>
      </trkpt>
      <trkpt lat="43.88226" lon="5.72266">
        <ele>429.829</ele>
        <time>2020-09-27T16:24:48Z</time>
      </trkpt>
      <trkpt lat="43.88244" lon="5.72339">
        <ele>429.221</ele>
        <time>2020-09-27T16:24:54Z</time>
      </trkpt>
      <trkpt lat="43.88313" lon="5.72448">
        <ele>425.808</ele>
        <time>2020-09-27T16:25:26Z</time>
      </trkpt>
      <trkpt lat="43.8838" lon="5.72631">
        <ele>418.429</ele>
        <time>2020-09-27T16:26:25Z</time>
      </trkpt>
      <trkpt lat="43.88381" lon="5.72867">
        <ele>411.011</ele>
        <time>2020-09-27T16:27:59Z</time>
      </trkpt>
      <trkpt lat="43.88398" lon="5.72944">
        <ele>410.419</ele>
        <time>2020-09-27T16:28:12Z</time>
      </trkpt>
      <trkpt lat="43.88445" lon="5.73008">
        <ele>408.293</ele>
        <time>2020-09-27T16:28:32Z</time>
      </trkpt>
      <trkpt lat="43.88482" lon="5.73025">
        <ele>407.625</ele>
        <time>2020-09-27T16:31:20Z</time>
      </trkpt>
      <trkpt lat="43.88512" lon="5.73017">
        <ele>409.413</ele>
        <time>2020-09-27T16:32:44Z</time>
      </trkpt>
      <trkpt lat="43.88536" lon="5.73034">
        <ele>412.679</ele>
        <time>2020-09-27T16:33:57Z</time>
      </trkpt>
      <trkpt lat="43.88661" lon="5.73227">
        <ele>412.268</ele>
        <time>2020-09-27T16:34:46Z</time>
      </trkpt>
      <trkpt lat="43.88728" lon="5.73294">
        <ele>407.891</ele>
        <time>2020-09-27T16:35:49Z</time>
      </trkpt>
      <trkpt lat="43.88733" lon="5.73317">
        <ele>408.008</ele>
        <time>2020-09-27T16:37:39Z</time>
      </trkpt>
      <trkpt lat="43.88945" lon="5.73604">
        <ele>410.274</ele>
        <time>2020-09-27T16:38:51Z</time>
      </trkpt>
      <trkpt lat="43.88915" lon="5.73855">
        <ele>408.226</ele>
        <time>2020-09-27T16:39:20Z</time>
      </trkpt>
      <trkpt lat="43.8892" lon="5.73926">
        <ele>407.614</ele>
        <time>2020-09-27T16:39:29Z</time>
      </trkpt>
      <trkpt lat="43.88934" lon="5.73958">
        <ele>407.228</ele>
        <time>2020-09-27T16:39:35Z</time>
      </trkpt>
      <trkpt lat="43.89031" lon="5.74034">
        <ele>406.22</ele>
        <time>2020-09-27T16:40:00Z</time>
      </trkpt>
      <trkpt lat="43.89045" lon="5.74096">
        <ele>405.478</ele>
        <time>2020-09-27T16:40:12Z</time>
      </trkpt>
      <trkpt lat="43.89031" lon="5.74118">
        <ele>405.084</ele>
        <time>2020-09-27T16:40:17Z</time>
      </trkpt>
      <trkpt lat="43.89066" lon="5.74181">
        <ele>403.813</ele>
        <time>2020-09-27T16:41:06Z</time>
      </trkpt>
      <trkpt lat="43.89091" lon="5.74372">
        <ele>403.229</ele>
        <time>2020-09-27T16:41:38Z</time>
      </trkpt>
      <trkpt lat="43.89077" lon="5.74465">
        <ele>402.4</ele>
        <time>2020-09-27T16:41:51Z</time>
      </trkpt>
      <trkpt lat="43.89015" lon="5.74547">
        <ele>402.02</ele>
        <time>2020-09-27T16:42:08Z</time>
      </trkpt>
      <trkpt lat="43.8903" lon="5.74577">
        <ele>401.408</ele>
        <time>2020-09-27T16:42:14Z</time>
      </trkpt>
      <trkpt lat="43.89069" lon="5.74601">
        <ele>401.617</ele>
        <time>2020-09-27T16:42:30Z</time>
      </trkpt>
      <trkpt lat="43.89039" lon="5.74749">
        <ele>401.269</ele>
        <time>2020-09-27T16:43:00Z</time>
      </trkpt>
      <trkpt lat="43.89048" lon="5.74882">
        <ele>400.617</ele>
        <time>2020-09-27T16:43:20Z</time>
      </trkpt>
      <trkpt lat="43.89076" lon="5.74977">
        <ele>400.681</ele>
        <time>2020-09-27T16:43:34Z</time>
      </trkpt>
      <trkpt lat="43.89321" lon="5.75508">
        <ele>397.433</ele>
        <time>2020-09-27T16:45:48Z</time>
      </trkpt>
      <trkpt lat="43.89384" lon="5.75697">
        <ele>395.821</ele>
        <time>2020-09-27T16:46:17Z</time>
      </trkpt>
      <trkpt lat="43.89531" lon="5.76556">
        <ele>391.217</ele>
        <time>2020-09-27T16:48:12Z</time>
      </trkpt>
      <trkpt lat="43.89519" lon="5.76873">
        <ele>391.026</ele>
        <time>2020-09-27T16:48:54Z</time>
      </trkpt>
      <trkpt lat="43.89539" lon="5.77005">
        <ele>390.486</ele>
        <time>2020-09-27T16:49:13Z</time>
      </trkpt>
      <trkpt lat="43.89567" lon="5.77085">
        <ele>390.66</ele>
        <time>2020-09-27T16:49:31Z</time>
      </trkpt>
      <trkpt lat="43.89657" lon="5.77201">
        <ele>389.826</ele>
        <time>2020-09-27T16:51:35Z</time>
      </trkpt>
      <trkpt lat="43.89741" lon="5.77245">
        <ele>390.208</ele>
        <time>2020-09-27T16:51:55Z</time>
      </trkpt>
      <trkpt lat="43.89822" lon="5.77256">
        <ele>390.433</ele>
        <time>2020-09-27T16:52:14Z</time>
      </trkpt>
      <trkpt lat="43.89848" lon="5.77428">
        <ele>390.435</ele>
        <time>2020-09-27T16:52:42Z</time>
      </trkpt>
      <trkpt lat="43.89815" lon="5.77472">
        <ele>391.443</ele>
        <time>2020-09-27T16:52:55Z</time>
      </trkpt>
      <trkpt lat="43.89532" lon="5.7756">
        <ele>391.467</ele>
        <time>2020-09-27T16:53:39Z</time>
      </trkpt>
      <trkpt lat="43.89501" lon="5.77583">
        <ele>390.679</ele>
        <time>2020-09-27T16:53:43Z</time>
      </trkpt>
      <trkpt lat="43.89445" lon="5.77716">
        <ele>389.077</ele>
        <time>2020-09-27T16:53:59Z</time>
      </trkpt>
      <trkpt lat="43.89372" lon="5.77762">
        <ele>387.843</ele>
        <time>2020-09-27T16:54:15Z</time>
      </trkpt>
      <trkpt lat="43.8929" lon="5.77768">
        <ele>387.032</ele>
        <time>2020-09-27T16:54:31Z</time>
      </trkpt>
      <trkpt lat="43.89168" lon="5.77753">
        <ele>386.645</ele>
        <time>2020-09-27T16:55:04Z</time>
      </trkpt>
      <trkpt lat="43.89073" lon="5.77735">
        <ele>389.408</ele>
        <time>2020-09-27T16:56:00Z</time>
      </trkpt>
      <trkpt lat="43.89032" lon="5.77733">
        <ele>390.279</ele>
        <time>2020-09-27T16:56:16Z</time>
      </trkpt>
      <trkpt lat="43.88957" lon="5.77704">
        <ele>390.451</ele>
        <time>2020-09-27T16:56:37Z</time>
      </trkpt>
      <trkpt lat="43.88872" lon="5.77697">
        <ele>391.029</ele>
        <time>2020-09-27T16:56:58Z</time>
      </trkpt>
      <trkpt lat="43.88655" lon="5.77731">
        <ele>391.063</ele>
        <time>2020-09-27T16:57:36Z</time>
      </trkpt>
      <trkpt lat="43.88569" lon="5.77769">
        <ele>390.295</ele>
        <time>2020-09-27T16:57:55Z</time>
      </trkpt>
      <trkpt lat="43.88215" lon="5.775">
        <ele>403.223</ele>
        <time>2020-09-27T16:59:50Z</time>
      </trkpt>
      <trkpt lat="43.88153" lon="5.77488">
        <ele>406.299</ele>
        <time>2020-09-27T17:00:09Z</time>
      </trkpt>
      <trkpt lat="43.88074" lon="5.77501">
        <ele>409.688</ele>
        <time>2020-09-27T17:00:33Z</time>
      </trkpt>
      <trkpt lat="43.87984" lon="5.77531">
        <ele>423.419</ele>
        <time>2020-09-27T17:02:03Z</time>
      </trkpt>
      <trkpt lat="43.87986" lon="5.77452">
        <ele>436.04</ele>
        <time>2020-09-27T17:07:37Z</time>
      </trkpt>
      <trkpt lat="43.87994" lon="5.77418">
        <ele>437.278</ele>
        <time>2020-09-27T17:07:55Z</time>
      </trkpt>
      <trkpt lat="43.87977" lon="5.77373">
        <ele>444.244</ele>
        <time>2020-09-27T17:08:42Z</time>
      </trkpt>
      <trkpt lat="43.87997" lon="5.77308">
        <ele>458.463</ele>
        <time>2020-09-27T17:10:05Z</time>
      </trkpt>
      <trkpt lat="43.87978" lon="5.77215">
        <ele>465.043</ele>
        <time>2020-09-27T17:12:28Z</time>
      </trkpt>
      <trkpt lat="43.87943" lon="5.77187">
        <ele>466.417</ele>
        <time>2020-09-27T17:12:45Z</time>
      </trkpt>
      <trkpt lat="43.87894" lon="5.77085">
        <ele>471.608</ele>
        <time>2020-09-27T17:13:22Z</time>
      </trkpt>
      <trkpt lat="43.87845" lon="5.77037">
        <ele>476.063</ele>
        <time>2020-09-27T17:13:45Z</time>
      </trkpt>
      <trkpt lat="43.87824" lon="5.76862">
        <ele>484.665</ele>
        <time>2020-09-27T17:14:28Z</time>
      </trkpt>
      <trkpt lat="43.87763" lon="5.76817">
        <ele>491.017</ele>
        <time>2020-09-27T17:16:52Z</time>
      </trkpt>
      <trkpt lat="43.87699" lon="5.76775">
        <ele>493.673</ele>
        <time>2020-09-27T17:17:17Z</time>
      </trkpt>
      <trkpt lat="43.8768" lon="5.76778">
        <ele>494.682</ele>
        <time>2020-09-27T17:17:23Z</time>
      </trkpt>
      <trkpt lat="43.87643" lon="5.76817">
        <ele>496.839</ele>
        <time>2020-09-27T17:17:38Z</time>
      </trkpt>
      <trkpt lat="43.87653" lon="5.7687">
        <ele>498.601</ele>
        <time>2020-09-27T17:17:53Z</time>
      </trkpt>
      <trkpt lat="43.8764" lon="5.7695">
        <ele>501.021</ele>
        <time>2020-09-27T17:18:10Z</time>
      </trkpt>
      <trkpt lat="43.87611" lon="5.76978">
        <ele>503.008</ele>
        <time>2020-09-27T17:18:19Z</time>
      </trkpt>
      <trkpt lat="43.87561" lon="5.76977">
        <ele>506.858</ele>
        <time>2020-09-27T17:18:33Z</time>
      </trkpt>
      <trkpt lat="43.87589" lon="5.77012">
        <ele>508.68</ele>
        <time>2020-09-27T17:18:42Z</time>
      </trkpt>
      <trkpt lat="43.87636" lon="5.77018">
        <ele>511.898</ele>
        <time>2020-09-27T17:18:55Z</time>
      </trkpt>
      <trkpt lat="43.87687" lon="5.76983">
        <ele>515.872</ele>
        <time>2020-09-27T17:19:12Z</time>
      </trkpt>
      <trkpt lat="43.87711" lon="5.76921">
        <ele>517.624</ele>
        <time>2020-09-27T17:19:24Z</time>
      </trkpt>
      <trkpt lat="43.87705" lon="5.77001">
        <ele>519.862</ele>
        <time>2020-09-27T17:19:43Z</time>
      </trkpt>
      <trkpt lat="43.87675" lon="5.7705">
        <ele>521.898</ele>
        <time>2020-09-27T17:19:57Z</time>
      </trkpt>
      <trkpt lat="43.87584" lon="5.77133">
        <ele>529.047</ele>
        <time>2020-09-27T17:20:26Z</time>
      </trkpt>
      <trkpt lat="43.87527" lon="5.77225">
        <ele>536.899</ele>
        <time>2020-09-27T17:20:51Z</time>
      </trkpt>
      <trkpt lat="43.87443" lon="5.77272">
        <ele>540.407</ele>
        <time>2020-09-27T17:21:07Z</time>
      </trkpt>
      <trkpt lat="43.87443" lon="5.77338">
        <ele>541.827</ele>
        <time>2020-09-27T17:21:18Z</time>
      </trkpt>
      <trkpt lat="43.87399" lon="5.77387">
        <ele>544.008</ele>
        <time>2020-09-27T17:21:32Z</time>
      </trkpt>
      <trkpt lat="43.87381" lon="5.77432">
        <ele>545.024</ele>
        <time>2020-09-27T17:21:39Z</time>
      </trkpt>
      <trkpt lat="43.87382" lon="5.7755">
        <ele>546.236</ele>
        <time>2020-09-27T17:21:55Z</time>
      </trkpt>
      <trkpt lat="43.87353" lon="5.77447">
        <ele>545.644</ele>
        <time>2020-09-27T17:22:12Z</time>
      </trkpt>
      <trkpt lat="43.87359" lon="5.77382">
        <ele>544.288</ele>
        <time>2020-09-27T17:22:21Z</time>
      </trkpt>
      <trkpt lat="43.8731" lon="5.77447">
        <ele>543.22</ele>
        <time>2020-09-27T17:22:33Z</time>
      </trkpt>
      <trkpt lat="43.8721" lon="5.77414">
        <ele>540.698</ele>
        <time>2020-09-27T17:23:22Z</time>
      </trkpt>
      <trkpt lat="43.87198" lon="5.77364">
        <ele>539.054</ele>
        <time>2020-09-27T17:23:38Z</time>
      </trkpt>
      <trkpt lat="43.87136" lon="5.77325">
        <ele>538.023</ele>
        <time>2020-09-27T17:23:56Z</time>
      </trkpt>
      <trkpt lat="43.87082" lon="5.77199">
        <ele>542.052</ele>
        <time>2020-09-27T17:24:23Z</time>
      </trkpt>
      <trkpt lat="43.87028" lon="5.77137">
        <ele>544.853</ele>
        <time>2020-09-27T17:24:40Z</time>
      </trkpt>
      <trkpt lat="43.86941" lon="5.77138">
        <ele>548.408</ele>
        <time>2020-09-27T17:25:27Z</time>
      </trkpt>
      <trkpt lat="43.86916" lon="5.77114">
        <ele>548.208</ele>
        <time>2020-09-27T17:25:33Z</time>
      </trkpt>
      <trkpt lat="43.86896" lon="5.77116">
        <ele>548.21</ele>
        <time>2020-09-27T17:25:38Z</time>
      </trkpt>
      <trkpt lat="43.86862" lon="5.77053">
        <ele>548.282</ele>
        <time>2020-09-27T17:25:53Z</time>
      </trkpt>
      <trkpt lat="43.86778" lon="5.7707">
        <ele>547.86</ele>
        <time>2020-09-27T17:26:12Z</time>
      </trkpt>
      <trkpt lat="43.86729" lon="5.77187">
        <ele>548.224</ele>
        <time>2020-09-27T17:26:34Z</time>
      </trkpt>
      <trkpt lat="43.86693" lon="5.77513">
        <ele>547.816</ele>
        <time>2020-09-27T17:27:23Z</time>
      </trkpt>
      <trkpt lat="43.86653" lon="5.77662">
        <ele>545.084</ele>
        <time>2020-09-27T17:27:47Z</time>
      </trkpt>
      <trkpt lat="43.86582" lon="5.77741">
        <ele>546.22</ele>
        <time>2020-09-27T17:28:13Z</time>
      </trkpt>
      <trkpt lat="43.86583" lon="5.77763">
        <ele>548.825</ele>
        <time>2020-09-27T17:28:32Z</time>
      </trkpt>
      <trkpt lat="43.86583" lon="5.77763">
        <ele>549.008</ele>
        <time>2020-09-27T17:28:36Z</time>
      </trkpt>
      <trkpt lat="43.86556" lon="5.77774">
        <ele>549.823</ele>
        <time>2020-09-27T17:28:39Z</time>
      </trkpt>
      <trkpt lat="43.86484" lon="5.77716">
        <ele>561.815</ele>
        <time>2020-09-27T17:29:39Z</time>
      </trkpt>
      <trkpt lat="43.86439" lon="5.77727">
        <ele>565.813</ele>
        <time>2020-09-27T17:29:55Z</time>
      </trkpt>
      <trkpt lat="43.86376" lon="5.77814">
        <ele>578.647</ele>
        <time>2020-09-27T17:30:30Z</time>
      </trkpt>
      <trkpt lat="43.86312" lon="5.77988">
        <ele>592.469</ele>
        <time>2020-09-27T17:31:39Z</time>
      </trkpt>
      <trkpt lat="43.86307" lon="5.78035">
        <ele>592.087</ele>
        <time>2020-09-27T17:31:46Z</time>
      </trkpt>
      <trkpt lat="43.86209" lon="5.78059">
        <ele>591.493</ele>
        <time>2020-09-27T17:32:06Z</time>
      </trkpt>
      <trkpt lat="43.86169" lon="5.78105">
        <ele>591.262</ele>
        <time>2020-09-27T17:32:17Z</time>
      </trkpt>
      <trkpt lat="43.86151" lon="5.78349">
        <ele>604</ele>
      </trkpt>
      <trkpt lat="43.86148" lon="5.78471">
        <ele>596.882</ele>
        <time>2020-09-27T17:36:59Z</time>
      </trkpt>
      <trkpt lat="43.86156" lon="5.78538">
        <ele>598.874</ele>
        <time>2020-09-27T17:38:32Z</time>
      </trkpt>
      <trkpt lat="43.86128" lon="5.78558">
        <ele>598.426</ele>
        <time>2020-09-27T17:38:34Z</time>
      </trkpt>
      <trkpt lat="43.86093" lon="5.78748">
        <ele>555.484</ele>
        <time>2020-09-27T17:40:55Z</time>
      </trkpt>
      <trkpt lat="43.86018" lon="5.7887">
        <ele>533.42</ele>
        <time>2020-09-27T17:41:58Z</time>
      </trkpt>
      <trkpt lat="43.85991" lon="5.79004">
        <ele>516.649</ele>
        <time>2020-09-27T17:42:23Z</time>
      </trkpt>
      <trkpt lat="43.85968" lon="5.79077">
        <ele>507.654</ele>
        <time>2020-09-27T17:42:35Z</time>
      </trkpt>
      <trkpt lat="43.85947" lon="5.79099">
        <ele>499.456</ele>
        <time>2020-09-27T17:42:49Z</time>
      </trkpt>
      <trkpt lat="43.8597" lon="5.79136">
        <ele>472.411</ele>
        <time>2020-09-27T17:44:40Z</time>
      </trkpt>
      <trkpt lat="43.85895" lon="5.7912">
        <ele>469.008</ele>
        <time>2020-09-27T17:45:03Z</time>
      </trkpt>
      <trkpt lat="43.8584" lon="5.79155">
        <ele>466.87</ele>
        <time>2020-09-27T17:45:16Z</time>
      </trkpt>
      <trkpt lat="43.85729" lon="5.7914">
        <ele>459.492</ele>
        <time>2020-09-27T17:45:50Z</time>
      </trkpt>
      <trkpt lat="43.85697" lon="5.79185">
        <ele>456.43</ele>
        <time>2020-09-27T17:46:00Z</time>
      </trkpt>
      <trkpt lat="43.8559" lon="5.7926">
        <ele>451.074</ele>
        <time>2020-09-27T17:46:17Z</time>
      </trkpt>
      <trkpt lat="43.85521" lon="5.7934">
        <ele>446.466</ele>
        <time>2020-09-27T17:46:33Z</time>
      </trkpt>
      <trkpt lat="43.85545" lon="5.79382">
        <ele>443.844</ele>
        <time>2020-09-27T17:46:43Z</time>
      </trkpt>
      <trkpt lat="43.85599" lon="5.79389">
        <ele>440.49</ele>
        <time>2020-09-27T17:46:56Z</time>
      </trkpt>
      <trkpt lat="43.85606" lon="5.79416">
        <ele>439.269</ele>
        <time>2020-09-27T17:47:01Z</time>
      </trkpt>
      <trkpt lat="43.85434" lon="5.79501">
        <ele>434.497</ele>
        <time>2020-09-27T17:47:27Z</time>
      </trkpt>
      <trkpt lat="43.85355" lon="5.79659">
        <ele>431.223</ele>
        <time>2020-09-27T17:47:48Z</time>
      </trkpt>
      <trkpt lat="43.85135" lon="5.79851">
        <ele>423.825</ele>
        <time>2020-09-27T17:48:21Z</time>
      </trkpt>
      <trkpt lat="43.85046" lon="5.79975">
        <ele>419.808</ele>
        <time>2020-09-27T17:48:34Z</time>
      </trkpt>
      <trkpt lat="43.84923" lon="5.8019">
        <ele>412.024</ele>
        <time>2020-09-27T17:48:54Z</time>
      </trkpt>
      <trkpt lat="43.84776" lon="5.80312">
        <ele>403.446</ele>
        <time>2020-09-27T17:49:14Z</time>
      </trkpt>
      <trkpt lat="43.84882" lon="5.80248">
        <ele>396.044</ele>
        <time>2020-09-27T17:49:45Z</time>
      </trkpt>
      <trkpt lat="43.85063" lon="5.80326">
        <ele>396.418</ele>
        <time>2020-09-27T17:50:34Z</time>
      </trkpt>
      <trkpt lat="43.85162" lon="5.80432">
        <ele>401.64</ele>
        <time>2020-09-27T17:51:06Z</time>
      </trkpt>
      <trkpt lat="43.85238" lon="5.80541">
        <ele>408.058</ele>
        <time>2020-09-27T17:51:37Z</time>
      </trkpt>
      <trkpt lat="43.85296" lon="5.80578">
        <ele>413.874</ele>
        <time>2020-09-27T17:51:54Z</time>
      </trkpt>
      <trkpt lat="43.8531" lon="5.80605">
        <ele>444.4</ele>
      </trkpt>
      <trkpt lat="43.85308" lon="5.80629">
        <ele>445</ele>
      </trkpt>
      <trkpt lat="43.85316" lon="5.80658">
        <ele>419.666</ele>
        <time>2020-09-27T17:52:15Z</time>
      </trkpt>
      <trkpt lat="43.85339" lon="5.80709">
        <ele>420.421</ele>
        <time>2020-09-27T17:52:23Z</time>
      </trkpt>
      <trkpt lat="43.8536" lon="5.80754">
        <ele>420.808</ele>
        <time>2020-09-27T17:52:28Z</time>
      </trkpt>
      <trkpt lat="43.85381" lon="5.80881">
        <ele>422.461</ele>
        <time>2020-09-27T17:52:43Z</time>
      </trkpt>
      <trkpt lat="43.85424" lon="5.80983">
        <ele>422.693</ele>
        <time>2020-09-27T17:52:56Z</time>
      </trkpt>
      <trkpt lat="43.85461" lon="5.81171">
        <ele>421.641</ele>
        <time>2020-09-27T17:53:17Z</time>
      </trkpt>
      <trkpt lat="43.85483" lon="5.81391">
        <ele>415.255</ele>
        <time>2020-09-27T17:53:35Z</time>
      </trkpt>
      <trkpt lat="43.85489" lon="5.81425">
        <ele>407.061</ele>
        <time>2020-09-27T17:54:12Z</time>
      </trkpt>
      <trkpt lat="43.85495" lon="5.81458">
        <ele>404.26</ele>
        <time>2020-09-27T17:54:24Z</time>
      </trkpt>
      <trkpt lat="43.85432" lon="5.81638">
        <ele>381.3</ele>
      </trkpt>
    </trkseg>
  </trk>
</gpx>